Cosco Aden — VRKF9 — position and weather

sailwx.info

Track history (hours):
 
Tides and Currents Weather Stations Pressure Air Temp Water Temp Dewpoint Dewpoint Depression Visibility Wind Speed Wind Dir Waves Ship Positions

Cosco Aden

Last reported at 2015-Jul-05 14:20 UTC. Time now 2015-Jul-05 21:02 UTC.
Position N 35°05' E 121°35'.

Length 261 m; draft 10 m.

Type: Other ship. MMSI: 477765900.

Date/timePositionNaut miles runAvg speedWind from/ knotsBaromVisibWave heightAir tempDewpointWater temp
2015-Jul-05 14:20N 35°05' E 121°35'1114.1
2015-Jul-05 13:33N 34°57' E 121°44'1514.6
2015-Jul-05 12:32N 34°45' E 121°56'1414.2
2015-Jul-05 11:33N 34°35' E 122°07'3014.9
2015-Jul-05 09:33N 34°13' E 122°32'10416.5
2015-Jul-05 03:16N 32°31' E 122°54'1819.7
2015-Jul-05 02:21N 32°13' E 122°54'1719.2
2015-Jul-05 01:28N 31°56' E 122°53'7418.3
2015-Jul-04 21:26N 30°42' E 122°53'1617.8
2015-Jul-04 20:33N 30°33' E 122°38'1615.5
2015-Jul-04 19:32N 30°32' E 122°20'1313.5
2015-Jul-04 18:33N 30°36' E 122°05'1 0.7
2015-Jul-04 17:16N 30°37' E 122°05'0 0.0
2015-Jul-04 16:28N 30°37' E 122°05'0 0.0
2015-Jul-04 14:14N 30°37' E 122°05'0 0.0
2015-Jul-04 09:11N 30°37' E 122°05'0 0.1
2015-Jul-04 08:07N 30°37' E 122°05'0 0.1
2015-Jul-04 07:22N 30°37' E 122°05'0 0.0
2015-Jul-04 06:05N 30°37' E 122°05'1 2.0
2015-Jul-04 05:33N 30°36' E 122°06'7 7.4
2015-Jul-04 04:32N 30°34' E 122°14'1110.8
2015-Jul-04 03:31N 30°33' E 122°26'9 2.8
2015-Jul-04 00:30N 30°27' E 122°34'0 0.3
2015-Jul-03 23:33N 30°27' E 122°35'9 8.9
2015-Jul-03 22:33N 30°25' E 122°45'1010.6
2015-Jul-03 21:33N 30°20' E 122°55'7 6.8
2015-Jul-03 20:33N 30°16' E 123°02'6 6.3
2015-Jul-03 19:33N 30°10' E 123°04'7 7.0
2015-Jul-03 18:33N 30°03' E 123°04'7 6.9
2015-Jul-03 17:33N 29°58' E 122°59'8 8.4
2015-Jul-03 16:33N 29°53' E 122°51'8 7.9
2015-Jul-03 15:33N 29°50' E 122°42'8 7.6
2015-Jul-03 14:33N 29°46' E 122°35'6 6.3
2015-Jul-03 13:33N 29°44' E 122°28'5 5.4
2015-Jul-03 12:33N 29°45' E 122°21'7 7.2
2015-Jul-03 11:33N 29°48' E 122°14'1111.2
2015-Jul-03 10:33N 29°55' E 122°04'1110.9
2015-Jul-03 09:34N 29°56' E 121°52'0 0.1
2015-Jul-03 08:27N 29°56' E 121°52'0 0.0
2015-Jul-03 06:30N 29°56' E 121°52'0 0.1
2015-Jul-03 05:30N 29°56' E 121°52'0 0.1
2015-Jul-03 04:33N 29°56' E 121°52'0 0.0
2015-Jul-03 03:18N 29°56' E 121°52'0 0.0
2015-Jul-03 02:27N 29°56' E 121°52'0 0.0
2015-Jul-03 01:33N 29°56' E 121°52'0 0.0
2015-Jul-03 00:33N 29°56' E 121°52'0 0.0
2015-Jul-02 23:33N 29°56' E 121°52'0 0.0
2015-Jul-02 22:33N 29°56' E 121°52'0 0.0
2015-Jul-02 21:33N 29°56' E 121°52'0 0.0
2015-Jul-02 20:33N 29°56' E 121°52'1 0.8
2015-Jul-02 19:33N 29°56' E 121°53'9 8.9
2015-Jul-02 18:34N 29°56' E 122°03'1110.8
2015-Jul-02 17:34N 29°50' E 122°13'9 8.9
2015-Jul-02 16:33N 29°44' E 122°22'6 0.7
2015-Jul-02 07:27N 29°44' E 122°29'0 0.0
2015-Jul-01 23:15N 29°44' E 122°29'0 0.1
2015-Jul-01 22:33N 29°44' E 122°29'6 6.1
2015-Jul-01 21:33N 29°47' E 122°35'10 9.8
2015-Jul-01 20:33N 29°51' E 122°45'54 8.3
2015-Jul-01 14:03N 30°25' E 123°34'  
Track history (hours):
 
Tides and Currents Weather Stations Pressure Air Temp Water Temp Dewpoint Dewpoint Depression Visibility Wind Speed Wind Dir Waves Ship Positions

Cosco Aden

Last reported at 2015-Jul-05 14:20 UTC. Time now 2015-Jul-05 21:02 UTC.
Position N 35°05' E 121°35'.

Length 261 m; draft 10 m.

Type: Other ship. MMSI: 477765900.

Date/timePositionNaut miles runAvg speedWind from/ knotsBaromVisibWave heightAir tempDewpointWater temp
2015-Jul-05 14:20N 35°05' E 121°35'1114.1
2015-Jul-05 13:33N 34°57' E 121°44'1514.6
2015-Jul-05 12:32N 34°45' E 121°56'1414.2
2015-Jul-05 11:33N 34°35' E 122°07'3014.9
2015-Jul-05 09:33N 34°13' E 122°32'10416.5
2015-Jul-05 03:16N 32°31' E 122°54'1819.7
2015-Jul-05 02:21N 32°13' E 122°54'1719.2
2015-Jul-05 01:28N 31°56' E 122°53'7418.3
2015-Jul-04 21:26N 30°42' E 122°53'1617.8
2015-Jul-04 20:33N 30°33' E 122°38'1615.5
2015-Jul-04 19:32N 30°32' E 122°20'1313.5
2015-Jul-04 18:33N 30°36' E 122°05'1 0.7
2015-Jul-04 17:16N 30°37' E 122°05'0 0.0
2015-Jul-04 16:28N 30°37' E 122°05'0 0.0
2015-Jul-04 14:14N 30°37' E 122°05'0 0.0
2015-Jul-04 09:11N 30°37' E 122°05'0 0.1
2015-Jul-04 08:07N 30°37' E 122°05'0 0.1
2015-Jul-04 07:22N 30°37' E 122°05'0 0.0
2015-Jul-04 06:05N 30°37' E 122°05'1 2.0
2015-Jul-04 05:33N 30°36' E 122°06'7 7.4
2015-Jul-04 04:32N 30°34' E 122°14'1110.8
2015-Jul-04 03:31N 30°33' E 122°26'9 2.8
2015-Jul-04 00:30N 30°27' E 122°34'0 0.3
2015-Jul-03 23:33N 30°27' E 122°35'9 8.9
2015-Jul-03 22:33N 30°25' E 122°45'1010.6
2015-Jul-03 21:33N 30°20' E 122°55'7 6.8
2015-Jul-03 20:33N 30°16' E 123°02'6 6.3
2015-Jul-03 19:33N 30°10' E 123°04'7 7.0
2015-Jul-03 18:33N 30°03' E 123°04'7 6.9
2015-Jul-03 17:33N 29°58' E 122°59'8 8.4
2015-Jul-03 16:33N 29°53' E 122°51'8 7.9
2015-Jul-03 15:33N 29°50' E 122°42'8 7.6
2015-Jul-03 14:33N 29°46' E 122°35'6 6.3
2015-Jul-03 13:33N 29°44' E 122°28'5 5.4
2015-Jul-03 12:33N 29°45' E 122°21'7 7.2
2015-Jul-03 11:33N 29°48' E 122°14'1111.2
2015-Jul-03 10:33N 29°55' E 122°04'1110.9
2015-Jul-03 09:34N 29°56' E 121°52'0 0.1
2015-Jul-03 08:27N 29°56' E 121°52'0 0.0
2015-Jul-03 06:30N 29°56' E 121°52'0 0.1
2015-Jul-03 05:30N 29°56' E 121°52'0 0.1
2015-Jul-03 04:33N 29°56' E 121°52'0 0.0
2015-Jul-03 03:18N 29°56' E 121°52'0 0.0
2015-Jul-03 02:27N 29°56' E 121°52'0 0.0
2015-Jul-03 01:33N 29°56' E 121°52'0 0.0
2015-Jul-03 00:33N 29°56' E 121°52'0 0.0
2015-Jul-02 23:33N 29°56' E 121°52'0 0.0
2015-Jul-02 22:33N 29°56' E 121°52'0 0.0
2015-Jul-02 21:33N 29°56' E 121°52'0 0.0
2015-Jul-02 20:33N 29°56' E 121°52'1 0.8
2015-Jul-02 19:33N 29°56' E 121°53'9 8.9
2015-Jul-02 18:34N 29°56' E 122°03'1110.8
2015-Jul-02 17:34N 29°50' E 122°13'9 8.9
2015-Jul-02 16:33N 29°44' E 122°22'6 0.7
2015-Jul-02 07:27N 29°44' E 122°29'0 0.0
2015-Jul-01 23:15N 29°44' E 122°29'0 0.1
2015-Jul-01 22:33N 29°44' E 122°29'6 6.1
2015-Jul-01 21:33N 29°47' E 122°35'10 9.8
2015-Jul-01 20:33N 29°51' E 122°45'54 8.3
2015-Jul-01 14:03N 30°25' E 123°34'  

Dump ship's entire track history